Archival Weather

Half Moon Bay

Half Moon Bay, California (KHAF)

Report from: Saturday, September 30, 2023 2:55 PM PDT
Current time: Saturday, July 13, 2024 6:51 PM PDT

Current weather – Weather history – Daily summaries
Weather forecast

Present weatherHaze
Temperature15.0°C (59.0°F)
Dew point13.0°C (55.4°F)
Winds 9 kts (4.6 m/s, 10.4 mph) North-Northwest (330°)
Visibility4 mi. (6.4 km)
Clouds Few clouds 1,300 ft. (396 m)
Scattered clouds 2,100 ft. (640 m)
Ceiling: Broken clouds 3,300 ft. (1,006 m)
Altimeter29.82 in.Hg (1010 mB)
Relative humidity88 %
Density altitude325 ft. (99 m)
Remarks Fully automated report
Automated weather observing station with precipitation discriminator
Flight conditions Marginal Visual Meteorological Conditions
Raw dataKHAF 302155Z AUTO 33009KT 4SM HZ FEW013 SCT021 BKN033 15/13 A2982 RMK AO2
An error has occurred. This application may no longer respond until reloaded. Reload 🗙